.
WxDataArchive / Data Records for 2014-07-17
2014-07-16 July 2014 2014-07-18

Data Records for Thursday, 17 July 2014

Time	Temp	Chill	HIndex	Humid	Dewpt	 Wind 	HiWind	WindDir	Rain 	Barom
-----	----	-----	------	-----	-----	------	------	-------	-----	-----
00:00	57.6	57.6	57.6	84	52.8	0	0	---	0.00	30.014 
00:05	57.5	57.5	57.5	84	52.7	0	0	---	0.00	30.014 
00:10	57.5	57.5	57.5	84	52.7	0	0	---	0.00	30.014 
00:15	57.3	57.3	57.3	84	52.5	0	0	---	0.00	30.018 
00:20	57.2	57.2	57.2	85	52.7	0	0	---	0.00	30.018 
00:25	57.0	57.0	57.0	85	52.5	0	0	---	0.00	30.018 
00:30	56.9	56.9	56.9	85	52.4	0	0	---	0.00	30.019 
00:35	56.7	56.7	56.7	85	52.2	0	0	---	0.00	30.019 
00:40	56.6	56.6	56.6	86	52.5	0	0	---	0.00	30.019 
00:45	56.3	56.3	56.3	86	52.2	0	0	---	0.00	30.019 
00:50	56.2	56.2	56.2	86	52.1	0	0	---	0.00	30.019 
00:55	56.0	56.0	56.0	87	52.2	0	0	---	0.00	30.019 
01:00	55.9	55.9	55.9	87	52.1	0	0	---	0.00	30.020 
01:05	55.7	55.7	55.7	88	52.2	0	0	---	0.00	30.020 
01:10	55.9	55.9	55.9	88	52.4	0	0	---	0.00	30.020 
01:15	56.0	56.0	56.0	88	52.5	0	0	---	0.00	30.020 
01:20	56.0	56.0	56.0	89	52.8	0	0	---	0.00	30.020 
01:25	56.3	56.3	56.3	89	53.1	0	0	---	0.00	30.020 
01:30	56.5	56.5	56.5	89	53.3	0	0	---	0.00	30.019 
01:35	56.6	56.6	56.6	89	53.4	0	0	---	0.00	30.019 
01:40	56.6	56.6	56.6	88	53.1	0	0	---	0.00	30.019 
01:45	56.5	56.5	56.5	88	53.0	0	0	---	0.00	30.020 
01:50	56.3	56.3	56.3	88	52.8	0	0	---	0.00	30.020 
01:55	56.3	56.3	56.3	88	52.8	0	0	---	0.00	30.020 
02:00	56.2	56.2	56.2	88	52.7	0	0	---	0.00	30.021 
02:05	56.2	56.2	56.2	88	52.7	0	0	---	0.00	30.021 
02:10	56.2	56.2	56.2	88	52.7	0	0	---	0.00	30.021 
02:15	56.0	56.0	56.0	88	52.5	0	0	---	0.00	30.021 
02:20	55.9	55.9	55.9	88	52.4	0	0	---	0.00	30.021 
02:25	55.7	55.7	55.7	88	52.2	0	0	---	0.00	30.021 
02:30	55.6	55.6	55.6	88	52.1	0	0	---	0.00	30.020 
02:35	55.3	55.3	55.3	88	51.8	0	0	---	0.00	30.020 
02:40	55.1	55.1	55.1	89	51.9	0	0	---	0.00	30.020 
02:45	55.0	55.0	55.0	89	51.8	0	0	---	0.00	30.021 
02:50	54.8	54.8	54.8	89	51.6	0	0	---	0.00	30.021 
02:55	54.7	54.7	54.7	89	51.5	0	0	---	0.00	30.021 
03:00	54.4	54.4	54.4	89	51.2	0	0	---	0.00	30.022 
03:05	54.2	54.2	54.2	89	51.0	0	0	---	0.00	30.022 
03:10	54.1	54.1	54.1	89	50.9	0	0	---	0.00	30.022 
03:15	53.9	53.9	53.9	90	51.0	0	0	---	0.00	30.019 
03:20	53.8	53.8	53.8	90	50.9	0	0	---	0.00	30.019 
03:25	53.6	53.6	53.6	90	50.7	0	0	---	0.00	30.019 
03:30	53.5	53.5	53.5	90	50.6	0	0	---	0.00	30.021 
03:35	53.3	53.3	53.3	90	50.4	0	0	---	0.00	30.021 
03:40	53.2	53.2	53.2	90	50.3	0	0	---	0.00	30.021 
03:45	53.2	53.2	53.2	91	50.6	0	0	---	0.00	30.022 
03:50	53.1	53.1	53.1	91	50.5	0	0	---	0.00	30.022 
03:55	52.9	52.9	52.9	91	50.3	0	0	---	0.00	30.022 
04:00	52.8	52.8	52.8	91	50.2	0	0	---	0.00	30.022 
04:05	52.6	52.6	52.6	91	50.0	0	0	---	0.00	30.022 
04:10	52.5	52.5	52.5	91	49.9	0	0	---	0.00	30.022 
04:15	52.3	52.3	52.3	91	49.8	0	0	---	0.00	30.030 
04:20	52.3	52.3	52.3	92	50.0	0	0	---	0.00	30.030 
04:25	52.3	52.3	52.3	92	50.0	0	0	---	0.00	30.030 
04:30	52.3	52.3	52.3	92	50.0	0	0	---	0.00	30.034 
04:35	52.2	52.2	52.2	92	49.9	0	0	---	0.00	30.034 
04:40	52.0	52.0	52.0	92	49.7	0	0	---	0.00	30.034 
04:45	52.0	52.0	52.0	92	49.7	0	0	---	0.00	30.037 
04:50	51.9	51.9	51.9	92	49.6	0	0	---	0.00	30.037 
04:55	51.9	51.9	51.9	92	49.6	0	0	---	0.00	30.037 
05:00	51.9	51.9	51.9	92	49.6	0	0	---	0.00	30.038 
05:05	51.9	51.9	51.9	92	49.6	0	0	---	0.00	30.038 
05:10	51.7	51.7	51.7	92	49.5	0	0	---	0.00	30.038 
05:15	51.4	51.4	51.4	92	49.2	0	0	---	0.00	30.041 
05:20	51.4	51.4	51.4	92	49.2	0	0	---	0.00	30.041 
05:25	51.3	51.3	51.3	93	49.3	0	0	---	0.00	30.041 
05:30	51.3	51.3	51.3	93	49.3	0	0	---	0.00	30.051 
05:35	51.3	51.3	51.3	93	49.3	0	0	---	0.00	30.051 
05:40	51.0	51.0	51.0	93	49.0	0	0	---	0.00	30.051 
05:45	50.8	50.8	50.8	93	48.8	0	0	---	0.00	30.052 
05:50	50.8	50.8	50.8	93	48.8	0	0	---	0.00	30.052 
05:55	50.7	50.7	50.7	93	48.7	0	0	---	0.00	30.052 
06:00	50.7	50.7	50.7	93	48.7	0	0	---	0.00	30.052 
06:05	50.5	50.5	50.5	93	48.6	0	0	---	0.00	30.052 
06:10	50.5	50.5	50.5	93	48.6	0	0	---	0.00	30.052 
06:15	50.5	50.5	50.5	93	48.6	0	0	---	0.00	30.054 
06:20	50.4	50.4	50.4	93	48.5	0	0	---	0.00	30.054 
06:25	50.4	50.4	50.4	93	48.5	0	0	---	0.00	30.054 
06:30	50.2	50.2	50.2	93	48.3	0	0	---	0.00	30.064 
06:35	50.2	50.2	50.2	93	48.3	0	0	---	0.00	30.064 
06:40	50.2	50.2	50.2	93	48.3	0	0	---	0.00	30.064 
06:45	50.2	50.2	50.2	93	48.3	0	0	---	0.00	30.068 
06:50	50.1	50.1	50.1	93	48.2	0	0	---	0.00	30.068 
06:55	50.1	50.1	50.1	93	48.2	0	0	---	0.00	30.068 
07:00	50.2	50.2	50.2	94	48.5	0	0	---	0.00	30.071 
07:05	50.2	50.2	50.2	94	48.5	0	0	---	0.00	30.071 
07:10	50.4	50.4	50.4	94	48.7	0	0	---	0.00	30.071 
07:15	50.7	50.7	50.7	94	49.0	0	0	---	0.00	30.078 
07:20	50.8	50.8	50.8	94	49.1	0	0	---	0.00	30.078 
07:25	51.4	51.4	51.4	94	49.7	0	0	---	0.00	30.078 
07:30	51.9	51.9	51.9	94	50.2	0	0	---	0.00	30.081 
07:35	52.5	52.5	52.5	94	50.8	0	0	---	0.00	30.081 
07:40	52.9	52.9	52.9	94	51.2	0	0	---	0.00	30.081 
07:45	53.3	53.3	53.3	94	51.6	0	0	---	0.00	30.081 
07:50	53.8	53.8	53.8	94	52.1	0	0	---	0.00	30.081 
07:55	54.4	54.4	54.4	94	52.7	0	0	---	0.00	30.081 
08:00	55.0	55.0	55.0	94	53.3	0	0	---	0.00	30.084 
08:05	55.6	55.6	55.6	93	53.6	0	1	0	0.00	30.084 
08:10	56.0	56.0	56.0	92	53.7	0	1	0	0.00	30.084 
08:15	56.6	56.6	56.6	92	54.3	0	1	0	0.00	30.093 
08:20	57.0	57.0	57.0	90	54.1	0	1	0	0.00	30.093 
08:25	57.5	57.5	57.5	89	54.3	0	1	0	0.00	30.093 
08:30	58.1	58.1	58.1	87	54.2	0	2	0	0.00	30.094 
08:35	58.6	58.6	58.6	86	54.4	0	1	0	0.00	30.094 
08:40	59.0	59.0	59.0	83	53.8	0	2	0	0.00	30.094 
08:45	59.3	59.3	59.3	82	53.8	0	3	0	0.00	30.093 
08:50	59.8	59.8	59.8	81	54.0	1	3	338	0.00	30.093 
08:55	60.2	60.2	60.2	80	54.0	0	2	338	0.00	30.093 
09:00	60.7	60.7	60.7	78	53.8	1	3	338	0.00	30.093 
09:05	60.9	60.9	60.9	77	53.6	1	3	338	0.00	30.093 
09:10	61.2	61.2	61.2	75	53.2	1	3	338	0.00	30.093 
09:15	61.6	61.6	61.6	75	53.6	0	2	338	0.00	30.096 
09:20	62.0	62.0	62.0	73	53.2	1	3	338	0.00	30.096 
09:25	62.1	62.1	62.1	72	53.0	1	3	292	0.00	30.096 
09:30	62.4	62.4	62.4	73	53.6	1	3	292	0.00	30.098 
09:35	62.7	62.7	62.7	71	53.2	1	2	292	0.00	30.098 
09:40	63.1	63.1	63.1	70	53.2	1	2	292	0.00	30.098 
09:45	63.5	63.5	63.5	71	53.9	0	2	292	0.00	30.104 
09:50	64.0	64.0	64.0	69	53.6	0	3	292	0.00	30.104 
09:55	64.8	64.8	64.8	68	54.0	0	2	112	0.00	30.104 
10:00	64.8	64.8	64.8	66	53.2	1	3	112	0.00	30.107 
10:05	64.8	64.8	64.8	65	52.8	1	3	112	0.00	30.107 
10:10	65.0	65.0	65.0	66	53.4	0	2	112	0.00	30.107 
10:15	65.3	65.3	65.3	65	53.2	0	2	112	0.00	30.110 
10:20	65.5	65.5	65.5	64	53.0	0	2	338	0.00	30.110 
10:25	65.8	65.8	65.8	64	53.3	1	3	315	0.00	30.110 
10:30	66.1	66.1	66.1	62	52.7	0	2	315	0.00	30.107 
10:35	66.9	66.9	66.9	62	53.4	0	3	315	0.00	30.107 
10:40	67.3	67.3	67.3	61	53.4	0	1	315	0.00	30.107 
10:45	67.3	67.3	67.3	61	53.4	1	2	315	0.00	30.106 
10:50	67.3	67.3	67.3	59	52.5	1	4	315	0.00	30.106 
10:55	67.9	67.9	67.9	60	53.5	0	1	112	0.00	30.106 
11:00	68.9	68.9	68.9	57	53.0	0	3	112	0.00	30.106 
11:05	69.1	69.1	69.1	58	53.7	0	1	112	0.00	30.106 
11:10	69.8	69.8	69.8	56	53.4	1	3	112	0.00	30.106 
11:15	70.4	70.4	70.4	56	53.9	0	2	112	0.00	30.105 
11:20	70.4	70.4	70.4	55	53.4	0	1	112	0.00	30.105 
11:25	71.1	71.1	71.1	53	53.1	0	2	112	0.00	30.105 
11:30	71.3	71.3	71.3	50	51.7	1	3	112	0.00	30.104 
11:35	71.8	71.8	71.8	51	52.7	0	3	112	0.00	30.104 
11:40	72.1	72.1	72.1	51	53.0	0	1	112	0.00	30.104 
11:45	71.8	71.8	71.8	53	53.7	1	2	112	0.00	30.102 
11:50	71.3	71.3	71.3	46	49.4	0	3	112	0.00	30.102 
11:55	70.4	70.4	70.4	46	48.6	1	3	112	0.00	30.102 
12:00	69.9	69.9	69.9	46	48.2	0	2	112	0.00	30.102 
12:05	70.1	70.1	70.1	45	47.8	0	3	112	0.00	30.102 
12:10	70.4	70.4	70.4	47	49.2	0	1	112	0.00	30.102 
12:15	71.3	71.3	71.3	46	49.4	0	1	112	0.00	30.101 
12:20	72.3	72.3	72.3	50	52.6	0	1	112	0.00	30.101 
12:25	72.7	72.7	72.7	47	51.3	1	3	112	0.00	30.101 
12:30	72.3	72.3	72.3	42	47.9	0	2	270	0.00	30.095 
12:35	71.8	71.8	71.8	42	47.5	0	1	270	0.00	30.095 
12:40	72.0	72.0	72.0	41	47.0	0	2	270	0.00	30.095 
12:45	73.0	73.0	73.0	41	47.9	0	2	225	0.00	30.095 
12:50	73.5	73.5	73.5	40	47.7	0	1	225	0.00	30.095 
12:55	73.7	73.7	73.7	41	48.5	0	2	225	0.00	30.095 
13:00	73.7	73.7	73.7	42	49.2	1	3	225	0.00	30.094 
13:05	73.9	73.9	73.9	44	50.6	0	2	225	0.00	30.094 
13:10	74.4	74.4	74.4	39	47.8	1	2	225	0.00	30.094 
13:15	74.9	74.9	74.9	40	48.9	1	3	135	0.00	30.092 
13:20	74.6	74.6	74.6	39	48.0	1	3	135	0.00	30.092 
13:25	74.0	74.0	74.0	42	49.4	1	4	112	0.00	30.092 
13:30	73.5	73.5	73.5	40	47.7	1	2	135	0.00	30.090 
13:35	73.0	73.0	73.0	40	47.2	1	3	248	0.00	30.090 
13:40	72.5	72.5	72.5	42	48.1	1	4	315	0.00	30.090 
13:45	73.0	73.0	73.0	43	49.2	0	2	315	0.00	30.091 
13:50	73.9	73.9	73.9	42	49.3	0	2	315	0.00	30.091 
13:55	74.4	74.4	74.4	39	47.8	1	2	315	0.00	30.091 
14:00	74.4	74.4	74.4	41	49.1	1	3	315	0.00	30.090 
14:05	74.9	74.9	74.9	39	48.3	0	2	315	0.00	30.090 
14:10	75.6	75.6	77.6	39	48.9	0	2	45	0.00	30.090 
14:15	76.0	76.0	77.8	40	49.9	0	1	45	0.00	30.088 
14:20	75.8	75.8	77.6	36	46.9	1	3	338	0.00	30.088 
14:25	75.3	75.3	77.4	36	46.5	1	3	270	0.00	30.088 
14:30	75.6	75.6	77.5	36	46.7	0	2	270	0.00	30.087 
14:35	75.8	75.8	77.6	36	46.9	0	2	270	0.00	30.087 
14:40	76.0	76.0	77.5	34	45.6	0	2	270	0.00	30.087 
14:45	76.0	76.0	77.6	35	46.4	1	3	270	0.00	30.087 
14:50	75.8	75.8	77.5	35	46.2	0	3	270	0.00	30.087 
14:55	76.0	76.0	77.7	38	48.5	0	4	270	0.00	30.087 
15:00	75.4	75.4	77.4	36	46.6	1	4	270	0.00	30.084 
15:05	74.9	74.9	74.9	36	46.1	1	3	315	0.00	30.084 
15:10	74.9	74.9	74.9	36	46.1	0	3	315	0.00	30.084 
15:15	74.7	74.7	74.7	34	44.4	1	4	315	0.00	30.086 
15:20	74.7	74.7	74.7	35	45.2	1	2	315	0.00	30.086 
15:25	74.7	74.7	74.7	35	45.2	1	3	315	0.00	30.086 
15:30	75.1	75.1	77.2	34	44.8	1	3	315	0.00	30.080 
15:35	75.3	75.3	77.4	35	45.7	1	4	315	0.00	30.080 
15:40	76.0	76.0	77.5	34	45.6	0	2	315	0.00	30.080 
15:45	76.1	76.1	77.7	36	47.2	1	3	315	0.00	30.080 
15:50	76.3	76.3	77.6	34	45.8	1	3	315	0.00	30.080 
15:55	76.8	76.8	77.8	33	45.5	0	1	315	0.00	30.080 
16:00	77.4	77.4	78.0	33	46.0	0	2	315	0.00	30.079 
16:05	77.9	77.9	78.1	31	44.8	1	4	315	0.00	30.079 
16:10	77.4	77.4	77.9	31	44.4	1	3	270	0.00	30.079 
16:15	77.2	77.2	77.9	32	45.0	0	2	292	0.00	30.084 
16:20	77.0	77.0	77.9	33	45.7	0	2	292	0.00	30.084 
16:25	76.5	76.5	77.6	32	44.4	0	1	292	0.00	30.084 
16:30	76.7	76.7	77.7	32	44.6	0	2	292	0.00	30.090 
16:35	76.8	76.8	77.8	34	46.3	0	2	292	0.00	30.090 
16:40	76.7	76.7	77.7	32	44.6	1	3	292	0.00	30.090 
16:45	76.3	76.3	77.7	36	47.4	0	2	292	0.00	30.086 
16:50	75.4	75.4	77.4	35	45.8	2	6	315	0.00	30.086 
16:55	74.7	74.7	74.7	35	45.2	0	4	315	0.00	30.086 
17:00	74.7	74.7	74.7	37	46.7	1	3	90	0.00	30.081 
17:05	75.1	75.1	77.3	36	46.3	1	4	112	0.00	30.081 
17:10	74.9	74.9	74.9	35	45.4	0	3	45	0.00	30.081 
17:15	74.6	74.6	74.6	35	45.1	0	2	45	0.00	30.081 
17:20	74.6	74.6	74.6	35	45.1	0	1	45	0.00	30.081 
17:25	74.0	74.0	74.0	33	43.1	0	2	45	0.00	30.081 
17:30	73.7	73.7	73.7	35	44.3	1	4	292	0.00	30.086 
17:35	73.9	73.9	73.9	36	45.2	0	4	292	0.00	30.086 
17:40	74.6	74.6	74.6	35	45.1	0	2	112	0.00	30.086 
17:45	75.4	75.4	77.3	34	45.1	0	3	112	0.00	30.085 
17:50	75.8	75.8	77.4	33	44.6	0	4	90	0.00	30.085 
17:55	75.6	75.6	77.3	33	44.5	1	3	90	0.00	30.085 
18:00	75.3	75.3	77.2	33	44.2	1	4	0	0.00	30.088 
18:05	74.9	74.9	74.9	34	44.6	1	2	0	0.00	30.088 
18:10	74.6	74.6	74.6	35	45.1	0	2	0	0.00	30.088 
18:15	74.6	74.6	74.6	33	43.6	0	2	0	0.00	30.089 
18:20	74.6	74.6	74.6	34	44.4	0	2	0	0.00	30.089 
18:25	74.6	74.6	74.6	34	44.4	0	2	0	0.00	30.089 
18:30	74.4	74.4	74.4	35	44.9	0	1	0	0.00	30.088 
18:35	74.4	74.4	74.4	35	44.9	0	1	0	0.00	30.088 
18:40	74.0	74.0	74.0	37	46.1	0	1	0	0.00	30.088 
18:45	73.5	73.5	73.5	38	46.3	0	1	0	0.00	30.088 
18:50	73.2	73.2	73.2	39	46.7	0	1	0	0.00	30.088 
18:55	73.0	73.0	73.0	38	45.9	0	1	0	0.00	30.088 
19:00	72.7	72.7	72.7	39	46.3	0	2	0	0.00	30.093 
19:05	72.3	72.3	72.3	40	46.6	0	1	0	0.00	30.093 
19:10	72.0	72.0	72.0	41	47.0	0	1	0	0.00	30.093 
19:15	71.6	71.6	71.6	41	46.6	0	0	---	0.00	30.092 
19:20	71.5	71.5	71.5	41	46.5	0	0	---	0.00	30.092 
19:25	71.3	71.3	71.3	41	46.4	0	0	---	0.00	30.092 
19:30	71.1	71.1	71.1	42	46.8	0	0	---	0.00	30.094 
19:35	70.9	70.9	70.9	43	47.3	0	0	---	0.00	30.094 
19:40	71.1	71.1	71.1	44	48.1	0	0	---	0.00	30.094 
19:45	71.3	71.3	71.3	43	47.6	0	0	---	0.00	30.095 
19:50	71.5	71.5	71.5	42	47.2	0	0	---	0.00	30.095 
19:55	71.6	71.6	71.6	42	47.3	0	0	---	0.00	30.095 
20:00	71.8	71.8	71.8	44	48.7	0	1	0	0.00	30.095 
20:05	71.6	71.6	71.6	43	47.9	0	0	---	0.00	30.095 
20:10	71.5	71.5	71.5	43	47.8	0	0	---	0.00	30.095 
20:15	71.5	71.5	71.5	43	47.8	0	0	---	0.00	30.094 
20:20	71.3	71.3	71.3	44	48.2	0	0	---	0.00	30.094 
20:25	71.1	71.1	71.1	43	47.5	0	0	---	0.00	30.094 
20:30	70.9	70.9	70.9	44	47.9	0	0	---	0.00	30.099 
20:35	70.8	70.8	70.8	44	47.8	0	0	---	0.00	30.099 
20:40	70.4	70.4	70.4	44	47.4	0	0	---	0.00	30.099 
20:45	70.3	70.3	70.3	45	47.9	0	0	---	0.00	30.103 
20:50	69.9	69.9	69.9	45	47.6	0	0	---	0.00	30.103 
20:55	69.4	69.4	69.4	46	47.7	0	0	---	0.00	30.103 
21:00	69.1	69.1	69.1	46	47.4	0	0	---	0.00	30.104 
21:05	68.8	68.8	68.8	47	47.7	0	0	---	0.00	30.104 
21:10	68.3	68.3	68.3	50	48.9	0	0	---	0.00	30.104 
21:15	67.9	67.9	67.9	50	48.6	0	0	---	0.00	30.104 
21:20	67.3	67.3	67.3	52	49.1	0	0	---	0.00	30.104 
21:25	66.8	66.8	66.8	54	49.6	0	0	---	0.00	30.104 
21:30	66.3	66.3	66.3	54	49.1	0	0	---	0.00	30.110 
21:35	65.6	65.6	65.6	55	49.0	0	0	---	0.00	30.110 
21:40	65.2	65.2	65.2	57	49.6	0	0	---	0.00	30.110 
21:45	64.7	64.7	64.7	58	49.6	0	0	---	0.00	30.114 
21:50	64.2	64.2	64.2	59	49.6	0	0	---	0.00	30.114 
21:55	63.7	63.7	63.7	59	49.1	0	0	---	0.00	30.114 
22:00	63.4	63.4	63.4	62	50.1	0	0	---	0.00	30.119 
22:05	63.1	63.1	63.1	63	50.3	0	0	---	0.00	30.119 
22:10	62.7	62.7	62.7	63	49.9	0	0	---	0.00	30.119 
22:15	62.3	62.3	62.3	65	50.4	0	0	---	0.00	30.119 
22:20	62.0	62.0	62.0	65	50.1	0	0	---	0.00	30.119 
22:25	61.8	61.8	61.8	66	50.3	0	0	---	0.00	30.119 
22:30	61.5	61.5	61.5	67	50.4	0	0	---	0.00	30.122 
22:35	61.2	61.2	61.2	67	50.2	0	0	---	0.00	30.122 
22:40	60.9	60.9	60.9	68	50.3	0	0	---	0.00	30.122 
22:45	60.5	60.5	60.5	69	50.3	0	0	---	0.00	30.122 
22:50	60.4	60.4	60.4	69	50.2	0	0	---	0.00	30.122 
22:55	60.1	60.1	60.1	70	50.3	0	0	---	0.00	30.122 
23:00	59.9	59.9	59.9	72	50.8	0	0	---	0.00	30.126 
23:05	59.6	59.6	59.6	72	50.6	0	0	---	0.00	30.126 
23:10	59.5	59.5	59.5	73	50.8	0	0	---	0.00	30.126 
23:15	59.3	59.3	59.3	73	50.6	0	0	---	0.00	30.128 
23:20	59.2	59.2	59.2	73	50.5	0	0	---	0.00	30.128 
23:25	58.9	58.9	58.9	74	50.6	0	0	---	0.00	30.128 
23:30	58.7	58.7	58.7	74	50.4	0	0	---	0.00	30.127 
23:35	58.4	58.4	58.4	74	50.1	0	0	---	0.00	30.127 
23:40	58.3	58.3	58.3	75	50.4	0	0	---	0.00	30.127 
23:45	58.1	58.1	58.1	76	50.6	0	0	---	0.00	30.125 
23:50	58.0	58.0	58.0	76	50.5	0	0	---	0.00	30.125 
23:55	57.8	57.8	57.8	77	50.6	0	0	---	0.00	30.125 

CoCoRaHS
IN-AL-39
A2 Web Hosting
Creative Commons License
GoDaddy
search engine by freefind advanced

loaded 2018-11-21 01:29:05 • last modified 2010-11-18 10:43:29
Privacy PolicyDisclaimer
• wx.awcolley.com is powered by PmWiki v.2002016 •
• all content (unless otherwise noted) © 2018 A W Colley